This is the latest recevied weather packets stored in our database for station/object N9CQL. If no packets are shown the sender has not sent any weather packets the latest 10 day(s).
| Time | Temp. | Humidity | Pressure | Rain* | Wind** | Luminosity | Snow |
|---|---|---|---|---|---|---|---|
| 1777943825 | 18.33° C | 74% | 998 hPa | 0 mm | - | 0 W/m² | - |
| 1777943523 | 18.33° C | 75% | 998.2 hPa | 0 mm | - | 0 W/m² | - |
| 1777943217 | 18.33° C | 74% | 998.2 hPa | 0 mm | - | 0 W/m² | - |
| 1777942915 | 18.33° C | 75% | 998 hPa | 0 mm | - | 0 W/m² | - |
| 1777942610 | 18.33° C | 76% | 998 hPa | 0 mm | - | 0 W/m² | - |
| 1777942308 | 18.33° C | 75% | 997.7 hPa | 0 mm | - | 0 W/m² | - |
| 1777942004 | 18.33° C | 75% | 997.5 hPa | 0 mm | - | 0 W/m² | - |
| 1777941701 | 18.33° C | 75% | 997.4 hPa | 0 mm | - | 0 W/m² | - |
| 1777941398 | 18.33° C | 73% | 997.2 hPa | 0 mm | - | 1 W/m² | - |
| 1777941096 | 18.89° C | 72% | 997.4 hPa | 0 mm | - | 2 W/m² | - |
| 1777940792 | 18.89° C | 72% | 997.5 hPa | 0 mm | - | 3 W/m² | - |
| 1777940490 | 18.33° C | 72% | 997.9 hPa | 0 mm | - | 1 W/m² | - |
| 1777940187 | 17.22° C | 78% | 998 hPa | 0 mm | - | 4 W/m² | - |
| 1777939885 | 17.78° C | 84% | 998.2 hPa | 0 mm | - | 6 W/m² | - |
| 1777939581 | 17.78° C | 84% | 997.8 hPa | 0 mm | - | 2 W/m² | - |
| 1777939279 | 17.78° C | 82% | 997.5 hPa | 0 mm | - | 3 W/m² | - |
| 1777938975 | 17.78° C | 79% | 997.3 hPa | 0 mm | - | 17 W/m² | - |
| 1777938672 | 17.78° C | 76% | 997.3 hPa | 3.05 mm | - | 27 W/m² | - |
| 1777938369 | 18.89° C | 71% | 997.3 hPa | 3.05 mm | - | 32 W/m² | - |
| 1777938067 | 20° C | 62% | 998.1 hPa | 0 mm | - | 9 W/m² | - |
| 1777937762 | 21.67° C | 54% | 998.2 hPa | 0 mm | - | 2 W/m² | - |
| 1777937458 | 21.67° C | 60% | 997.7 hPa | 0 mm | - | 1 W/m² | - |
| 1777937156 | 21.67° C | 61% | 997.2 hPa | 0 mm | - | 10 W/m² | - |
| 1777936853 | 22.22° C | 60% | 997 hPa | 0 mm | - | 9 W/m² | - |
| 1777936550 | 22.22° C | 58% | 996.6 hPa | 0 mm | - | 8 W/m² | - |
* Rain latest hour (hover to see other rain measurements)
** Current wind speed in m/s (hover to see current wind gust speed)